• Join FlightAware (Why Join?)
  • Login
  • US Flag 
10:53AM EDT


 

Airport Tracker/Info


-or-


 

Live Flight TrackerFlight Track Log ✈ UAL5863 ✈ 05-05-2013 ✈ KGRR - KORD

Flight Track Log - Related Links

Times and Time Zones

All times are in EDT time to prevent confusion due to time zone crossing. See the UAL5863 flight status page for this flight to view local times or setup timezone preferences in your user account.

Time Position Orientation Groundspeed Altitude Reporting Facility
EDT Latitude Longitude Course Direction KTS MPH feet Rate Location/Type
01:22PM 42.8303 -85.5153 248° West 172 198 2,800  Level Chicago Center
01:23PM 42.8058 -85.5889 246° West 229 264 4,800 1,920 Climbing Chicago Center
01:24PM 42.7797 -85.6986 252° West 250 288 6,800 2,160 Climbing Chicago Center
01:25PM 42.7852 -85.7518 249° West  Level FlightAware Approximate
01:25PM 42.7647 -85.8097 260° West 288 331 9,300  Level Chicago Center
01:26PM 42.7679 -85.8124 249° West  Level FlightAware Approximate
01:26PM 42.7469 -85.9194 258° West 293 337 11,000  Level Chicago Center
01:27PM 42.7410 -85.8633 248° West  Level FlightAware Approximate
01:27PM 42.7269 -86.0458 258° West 324 373 12,200  Level Chicago Center
01:28PM 42.6947 -86.1742 251° West 354 407 13,600 1,380 Climbing Chicago Center
01:29PM 42.6611 -86.3044 251° West 362 417 15,100 1,380 Climbing Chicago Center
01:30PM 42.6275 -86.4361 251° West 369 425 16,500 1,380 Climbing Chicago Center
01:31PM 42.5861 -86.5994 251° West 374 430 18,000 720 Climbing Chicago Center
01:32PM 42.5522 -86.7364 251° West 387 445 18,000 -360 Level Chicago Center
01:33PM 42.5144 -86.8875 251° West 417 480 17,300 -1,800 Descending Chicago Center
01:34PM 42.4756 -87.0347 250° West 411 473 14,300 -2,760 Descending Chicago Center
01:35PM 42.4392 -87.1700 250° West 387 445 11,700 -2,040 Descending Chicago Center
01:36PM 42.4033 -87.3003 250° West 374 430 10,100 -840 Descending Chicago Center
01:37PM 42.3631 -87.4478 250° West 364 419 10,000 -60 Descending Chicago Center
01:38PM 42.3131 -87.5633 240° Southwest 362 417 10,000  Level Chicago Center
01:39PM 42.2358 -87.6444 218° Southwest 355 409 10,000 -180 Level Chicago Center
01:41PM 42.1642 -87.7192 218° Southwest 327 376 9,700 -1,080 Descending Chicago Center
01:41PM 42.1167 -87.7667 217° Southwest 288 331 8,400 -1,800 Descending Chicago TRACON
01:42PM 42.1000 -87.8500 255° West 289 333 7,100 -720 Descending Chicago TRACON
01:43PM 42.1000 -87.9667 270° West 282 325 7,000 -180 Descending Chicago TRACON
01:45PM 42.0914 -88.0867 265° West 217 250 6,700 -600 Descending Chicago Center
01:46PM 42.0711 -88.1456 245° Southwest 217 250 5,400 -1,380 Descending Chicago Center
01:47PM 42.0161 -88.1278 166° South 187 215 3,900 -1,440 Descending Chicago Center
01:47PM 42.0167 -88.1167 86° East 175 201 3,500 -1,200 Descending Chicago TRACON
01:48PM 41.9833 -88.0500 124° Southeast 175 201 2,400 -840 Descending Chicago TRACON
01:49PM 41.9833 -88.0000 90° East 143 165 1,900 -600 Descending Chicago TRACON
01:50PM 41.9833 -87.9500 90° East 141 162 1,200 -720 Descending Chicago TRACON